Warning: Javascript must be enabled to use all the features on this page!


Page Loading - Please Wait...

* We've detected you're using a mobile device. Find our Next Generation Station Page here.
Click to hideNews Bulletins

Streamflow Measurements for the Nation


USGS 11313440 FALSE R NR OAKLEY CA


Contra Costa County, California
Hydrologic Unit Code 18040003
Latitude  38°03'21", Longitude 121°40'01" NAD83
Output formats
HTML table with channel data
HTML table without channel data
Tab-separated data with channel data
Tab-separated data without channel data
Graph of data
Reselect output format
Meas.
Number
  Date       Time Time
Datum
Measurement
Used?
  Who Measuring
Agency
Stream
flow
(ft3/s)
Gage
Height
(ft)
GH
Change
(ft)
Meas.
Duration
(hr)
Meas.
Rated
  Control Flow
Adjust.
Code
 
5142020-07-09 09:15:13PSTYesZH,ACUSGS4700017.57 Poor NONE
5132020-07-09 09:05:44PSTYesZH,ACUSGS4660017.63 Poor NONE
5122020-07-09 08:52:33PSTYesZH,ACUSGS4570017.63 Poor NONE
5112020-07-09 08:43:02PSTYesZH,ACUSGS4450017.79 Poor NONE
5102020-07-09 08:33:17PSTYesZH,ACUSGS4450017.87 Poor NONE
5092020-07-09 08:25:09PSTYesZH,ACUSGS4280017.94 Poor NONE
5082020-02-11 10:30:35PSTYesALC, BTGUSGS4190016.44 Poor NONE
5072020-02-11 10:23:39PSTYesALC, BTGUSGS4360016.46 Poor NONE
5062020-02-11 10:16:13PSTYesALC, BTGUSGS4370016.54 Poor NONE
5052020-02-11 10:08:01PSTYesALC, BTGUSGS4470016.56 Poor NONE
5042020-02-11 10:00:29PSTYesALC, BTGUSGS4340016.67 Poor NONE
5032020-02-11 09:53:48PSTYesALC, BTGUSGS4520016.65 Poor NONE
5022019-12-03 10:41:31PSTYesAC, MIUSGS-3040018.34 Poor NONE
5012019-12-03 10:34PSTYesAC, MIUSGS-3200018.33 Poor NONE
5002019-12-03 10:12:19PSTYesAC, MIUSGS-3630018.28 Poor NONE
4992019-12-03 10:04:59PSTYesAC, MIUSGS-3800018.26 Poor NONE
4982019-12-03 09:58:06PSTYesAC, MIUSGS-3910018.24 Poor NONE
4972019-12-03 09:50:58PSTYesAC, MIUSGS-4080018.21 Poor NONE
4962019-10-01 12:06:15PSTYesHR, ACUSGS2310015.84 Poor NONE
4952019-10-01 11:58:27PSTYesHR, ACUSGS2590015.84 Poor NONE
4942019-10-01 11:50:24PSTYesHR, ACUSGS2750015.83 Poor NONE
4932019-10-01 11:43:54PSTYesHR, ACUSGS2880015.83 Poor NONE
4922019-10-01 11:36:58PSTYesHR, ACUSGS3040015.86 Poor NONE
4912019-10-01 11:29:19PSTYesHR, ACUSGS3210015.88 Poor NONE
4902019-08-08 09:11:11PSTYesAC, MIUSGS-4160017.18 Good NONE
4892019-08-08 09:02:36PSTYesAC, MIUSGS-4120017.13 Good NONE
4882019-08-08 08:53:41PSTYesAC, MIUSGS-4090017.09 Good NONE
4872019-08-08 08:44:40PSTYesAC, MIUSGS-4150017.04 Good NONE
4862019-08-08 08:35:03PSTYesAC, MIUSGS-4250017.00 Good NONE
4852019-08-08 08:26:34PSTYesAC, MIUSGS-4270016.96 Good NONE
4842019-06-12 12:30:04PSTYesAC, JHUSGS-2110018.08 Good NONE
4832019-06-12 12:24:41PSTYesAC, JHUSGS-2380018.08 Good NONE
4822019-06-12 12:16:57PSTYesAC, JHUSGS-2480018.08 Good NONE
4812019-06-12 12:08:52PSTYesAC, JHUSGS-2890018.07 Good NONE
4802019-06-12 12:02:14PSTYesAC, JHUSGS-3010018.06 Good NONE
4792019-06-12 11:55:21PSTYesAC, JHUSGS-3220018.06 Good NONE
4782019-04-18 11:34:17PSTYesAC, MIUSGS-2160016.75 Good NONE
4772019-04-18 11:26:05PSTYesAC, MIUSGS-1110016.64 Good NONE
4762019-04-18 11:17:14PSTYesAC, MIUSGS-35016.50 Good NONE
4752019-04-18 11:08:51PSTYesAC, MIUSGS711016.39 Good NONE
4742019-04-18 10:59:06PSTYesAC, MIUSGS1530016.27 Good NONE
4732019-04-18 10:51:29PSTYesAC, MIUSGS2050016.20 Good NONE
4722019-02-12 10:34:07PSTYesAC,MPUSGS1290018.18 Good NONE
4712019-02-12 10:27:44PSTYesAC,MPUSGS898018.26 Good NONE
4702019-02-12 10:21:30PSTYesAC,MPUSGS518018.25 Good NONE
4692019-02-12 10:16:01PSTYesAC,MPUSGS186018.31 Good NONE
4682019-02-12 10:09:46PSTYesAC,MPUSGS-177018.33 Good NONE
4672019-02-12 10:03:05PSTYesAC,MPUSGS-572018.35 Good NONE
4662018-10-11 09:24:52PSTYesAC/MP/HRUSGS4310017.01 Fair NONE
4652018-10-11 09:16:38PSTYesAC/MP/HRUSGS4160017.05 Fair NONE
4642018-10-11 09:08:52PSTYesAC/MP/HRUSGS4170017.11 Fair NONE
4632018-10-11 09:01:35PSTYesAC/MP/HRUSGS4220017.15 Fair NONE
4622018-10-11 08:54:45PSTYesAC/MP/HRUSGS4250017.19 Fair NONE
4612018-10-11 08:48:41PSTYesAC/MP/HRUSGS4250017.22 Fair NONE
4602018-08-17 08:58:36PSTYesNS/AC/HRUSGS-2810017.68 Good NONE
4592018-08-17 08:51:07PSTYesNS/AC/HRUSGS-2980017.68 Good NONE
4582018-08-17 08:42:48PSTYesNS/AC/HRUSGS-3250017.67 Good NONE
4572018-08-17 08:34:39PSTYesNS/AC/HRUSGS-3400017.65 Good NONE
4562018-08-17 08:27:18PSTYesNS/AC/HRUSGS-3460017.64 Good NONE
4552018-08-17 08:20:19PSTYesNS/AC/HRUSGS-3690017.60 Good NONE
4542018-07-31 15:06:27PSTNo
4532018-07-02 11:06:03PSTYesAC,CHUSGS4120016.69 Fair NONE
4522018-07-02 11:02:38PSTYesAC,CHUSGS4310016.72 Fair NONE
4512018-07-02 10:59:32PSTYesAC,CHUSGS4090016.75 Fair NONE
4502018-07-02 10:56:17PSTYesAC,CHUSGS4270016.77 Fair NONE
4492018-07-02 10:52:53PSTYesAC,CHUSGS4350016.81 Fair NONE
4482018-07-02 10:49:11PSTYesAC,CHUSGS4240016.85 Fair NONE
4472018-07-02 10:44:05PSTYesAC,CHUSGS4400016.88 Fair NONE
4462018-07-02 10:39:41PSTYesAC,CHUSGS4420016.91 Fair NONE
4452018-05-01 10:36:51PSTYesNS/CHUSGS4430015.71 Fair NONE
4442018-05-01 10:33:51PSTYesNS/CHUSGS4500015.75 Fair NONE
4432018-05-01 10:30:45PSTYesNS/CHUSGS4320015.76 Fair NONE
4422018-05-01 10:27:43PSTYesNS/CHUSGS4380015.81 Fair NONE
4412018-05-01 10:24:49PSTYesNS/CHUSGS4470015.82 Fair NONE
4402018-05-01 10:21:45PSTYesNS/CHUSGS4470015.85 Fair NONE
4392018-02-28 13:11:14PSTYesNS/CHUSGS-5470018.15 Good NONE
4382018-02-28 13:03:24PSTYesNS/CHUSGS-5680018.12 Good NONE
4372018-02-28 12:56:07PSTYesNS/CHUSGS-5620018.07 Good NONE
4362018-02-28 12:49:22PSTYesNS/CHUSGS-5660018.02 Good NONE
4352018-02-28 12:42:17PSTYesNS/CHUSGS-5670017.96 Good NONE
4342018-02-28 12:35PSTYesNS/CHUSGS-5650017.90 Good NONE
4332017-12-14 13:38:12PSTYesBF, CHUSGS-3450018.44 Good NONE
4322017-12-14 13:30:43PSTYesBF, CHUSGS-3720018.44 Good NONE
4312017-12-14 13:22:54PSTYesBF, CHUSGS-3830018.43 Good NONE
4302017-12-14 13:15:14PSTYesBF, CHUSGS-4060018.42 Good NONE
4292017-12-14 13:08:02PSTYesBF, CHUSGS-4200018.40 Good NONE
4282017-12-14 13:01:11PSTYesBF, CHUSGS-4320018.38 Good NONE
4272017-10-03 10:13:18PSTYesNV/CHUSGS-2350016.08 Good NONE
4262017-10-03 10:06:05PSTYesNV/CHUSGS-1630015.97 Good NONE
4252017-10-03 09:58:26PSTYesNV/CHUSGS-903015.87 Good NONE
4242017-10-03 09:52:42PSTYesNV/CHUSGS-324015.79 Good NONE
4232017-10-03 09:46:15PSTYesNV/CHUSGS131015.71 Good NONE
4222017-10-03 09:39:46PSTYesNV/CHUSGS651015.64 Good NONE
4212017-10-03 09:33:30PSTYesNV/CHUSGS1060015.58 Good NONE
4202017-10-03 09:27:27PSTYesNV/CHUSGS1460015.53 Good NONE
4192017-07-19 09:04:27PSTYesCH/BGUSGS-2000015.96 Fair NONE
4182017-07-19 09:00:15PSTYesCH/BGUSGS-1550015.92 Fair NONE
4172017-07-19 08:55:47PSTYesCH/BGUSGS-1180015.86 Fair NONE
4162017-07-19 08:51:19PSTYesCH/BGUSGS-834015.81 Fair NONE
4152017-07-19 08:46:59PSTYesCH/BGUSGS-501015.76 Fair NONE
4142017-07-19 08:42:26PSTYesCH/BGUSGS-99715.72 Fair NONE
4132017-07-19 08:37:59PSTYesCH/BGUSGS249015.66 Fair NONE
4122017-07-19 08:33:14PSTYesCH/BGUSGS569015.64 Fair NONE
4112017-07-19 08:27:58PSTYesCH/BGUSGS926015.57 Fair NONE
4102017-07-19 08:23:08PSTYesCH/BGUSGS1190015.52 Fair NONE
4092017-05-10 09:55:06PSTYesNS/CHUSGS4510016.59 Good NONE
4082017-05-10 09:50:43PSTYesNS/CHUSGS4530016.62 Good NONE
4072017-05-10 09:46:27PSTYesNS/CHUSGS4460016.64 Good NONE
4062017-05-10 09:41:48PSTYesNS/CHUSGS4520016.67 Good NONE
4052017-05-10 09:37:18PSTYesNS/CHUSGS4660016.69 Good NONE
4042017-05-10 09:32:47PSTYesNS/CHUSGS4570016.74 Good NONE
4032017-02-09 12:18:30PSTYesBG/CHUSGS-6480020.33 Fair NONE
4022017-02-09 12:06:47PSTYesBG/CHUSGS-6730020.20 Fair NONE
4012017-02-09 11:59:33PSTYesBG/CHUSGS-6560020.14 Fair NONE
4002017-02-09 11:51:59PSTYesBG/CHUSGS-6660020.06 Fair NONE
3992017-02-09 11:38:52PSTYesBG/CHUSGS-6250019.90 Fair NONE
3982017-02-09 11:26:40PSTYesBG/CHUSGS-6280019.75 Fair NONE
3972017-02-09 11:17:51PSTYesBG/CHUSGS-5770019.64 Fair NONE
3962017-02-09 11:09:09PSTYesBG/CHUSGS-5330019.52 Fair NONE
3952016-12-12 11:37:10PSTYesTV,CHUSGS-5670017.86 Good NONE
3942016-12-12 11:28:19PSTYesTV,CHUSGS-5940017.79 Good NONE
3932016-12-12 11:20:15PSTYesTV,CHUSGS-5720017.72 Good NONE
3922016-12-12 11:13:49PSTYesTV,CHUSGS-5610017.65 Good NONE
3912016-12-12 11:07:09PSTYesTV,CHUSGS-5760017.59 Good NONE
3902016-12-12 11:00:45PSTYesTV,CHUSGS-5730017.53 Good NONE
3892016-12-12 10:54:32PSTYesTV,CHUSGS-5590017.47 Good NONE
3882016-12-12 10:47:47PSTYesTV,CHUSGS-5610017.42 Good NONE
3872016-09-08 09:18:16PSTYesTV, CHUSGS-3050017.76 Poor NONE
3862016-09-08 09:15:10PSTYesTV, CHUSGS-3080017.76 Poor NONE
3852016-09-08 09:12:02PSTYesTV, CHUSGS-3140017.75 Poor NONE
3842016-09-08 09:09:10PSTYesTV, CHUSGS-3160017.75 Poor NONE
3832016-09-08 09:06:18PSTYesTV, CHUSGS-3290017.74 Poor NONE
3822016-09-08 09:03:11PSTYesTV, CHUSGS-3330017.74 Poor NONE
3812016-07-15 13:10:01PSTYesRJ,CHUSGS-3860017.49 Good NONE
3802016-07-15 13:02:55PSTYesRJ,CHUSGS-4000017.46 Good NONE
3792016-07-15 12:56:07PSTYesRJ,CHUSGS-4020017.43 Good NONE
3782016-07-15 12:48:57PSTYesRJ,CHUSGS-4170017.40 Good NONE
3772016-07-15 12:42:15PSTYesRJ,CHUSGS-4250017.37 Good NONE
3762016-07-15 12:36:10PSTYesRJ,CHUSGS-4200017.34 Good NONE
3752016-04-12 13:07:12PSTYesCR, CHUSGS4590015.91 FairUnspecifedNONE
3742016-04-12 13:01:28PSTYesCR, CHUSGS4580015.96 FairUnspecifedNONE
3732016-04-12 12:55:06PSTYesCR, CHUSGS4600016.01 FairUnspecifedNONE
3722016-04-12 12:48:53PSTYesCR, CHUSGS4640016.07 FairUnspecifedNONE
3712016-04-12 12:42:57PSTYesCR, CHUSGS4600016.09 FairUnspecifedNONE
3702016-04-12 12:37:06PSTYesCR, CHUSGS4610016.17 FairUnspecifedNONE
3692016-01-26 14:01:17PSTYesCH, LKUSGS-4800017.34 Good NONE
3682016-01-26 13:56:30PSTYesCH, LKUSGS-4590017.32 Good NONE
3672016-01-26 13:48:41PSTYesCH, LKUSGS-4400017.19 Good NONE
3662016-01-26 13:38:32PSTYesCH, LKUSGS-3740017.08 Fair NONE
3652016-01-26 13:28:43PSTYesCH, LKUSGS-3340016.98 Fair NONE
3642016-01-26 13:19:02PSTYesCH, LKUSGS-2430016.87 Fair NONE
3632016-01-26 13:10:04PSTYesCH, LKUSGS-1680016.77 Good NONE
3622016-01-26 13:00:40PSTYesCH, LKUSGS-746016.67 Good NONE
3612016-01-26 10:02:46PSTYesCH, LKUSGS4310016.78 Good NONE
3602016-01-26 09:56:52PSTYesCH, LKUSGS4400016.81 Fair NONE
3592015-12-09 15:09:31PSTYesTV,RJUSGS-1520018.78 Fair NONE
3582015-12-09 15:00:17PSTYesTV,RJUSGS-2020018.82 Fair NONE
3572015-12-09 14:53:21PSTYesTV,RJUSGS-2360018.85 Fair NONE
3562015-12-09 14:46:58PSTYesTV,RJUSGS-2720018.87 Fair NONE
3552015-12-09 14:40:58PSTYesTV,RJUSGS-2890018.87 Fair NONE
3542015-12-09 14:35:08PSTYesTV,RJUSGS-3270018.88 Fair NONE
3532015-10-13 10:45:40PSTYesET, CHUSGS1340016.28 PoorFillControlChangedNONE
3522015-10-13 10:37:16PSTYesET, CHUSGS1740016.25 PoorFillControlChangedNONE
3512015-10-13 10:28:34PSTYesET, CHUSGS2110016.23 PoorFillControlChangedNONE
3502015-10-13 10:19:41PSTYesET, CHUSGS2390016.22 PoorFillControlChangedNONE
3492015-10-13 10:10:04PSTYesET, CHUSGS2640016.22 PoorFillControlChangedNONE
3482015-10-13 10:00:33PSTYesET, CHUSGS2810016.23 PoorFillControlChangedNONE
3472015-04-10 14:40PSTYesAD/CHAUSGS3640015.04 UnspecifiedUnspecifedNONE
3462015-04-10 14:29PSTYesAD/CHAUSGS3830015.09 UnspecifiedUnspecifedNONE
3452015-04-10 14:19PSTYesAD/CHAUSGS3850015.15 UnspecifiedUnspecifedNONE
3442015-04-10 14:08PSTYesAD/CHAUSGS3880015.20 UnspecifiedUnspecifedNONE
3432015-04-10 13:56PSTYesAD/CHAUSGS4000015.27 UnspecifiedUnspecifedNONE
3422015-04-10 13:46PSTYesAD/CHAUSGS4150015.35 UnspecifiedUnspecifedNONE
3412015-04-10 13:36PSTYesAD/CHAUSGS4150015.42 UnspecifiedUnspecifedNONE
3402015-04-10 13:27PSTYesAD/CHAUSGS4190015.48 UnspecifiedUnspecifedNONE
3392015-04-10 12:02PSTYesAD/CHAUSGS4530016.14 UnspecifiedUnspecifedNONE
3382015-04-10 11:51PSTYesAD/CHAUSGS4600016.24 UnspecifiedUnspecifedNONE
3372015-04-10 11:38PSTYesAD/CHAUSGS4620016.35 UnspecifiedUnspecifedNONE
3362015-04-10 11:27PSTYesAD/CHAUSGS4720016.44 UnspecifiedUnspecifedNONE
3352015-04-10 11:14PSTYesAD/CHAUSGS4690016.54 UnspecifiedUnspecifedNONE
3342015-04-10 11:05PSTYesAD/CHAUSGS4820016.63 UnspecifiedUnspecifedNONE
3332015-04-08 11:25PSTYesAD/DAUSGS44200 UnspecifiedUnspecifedNONE
3322015-04-08 11:10PSTYesAD/DAUSGS45800 UnspecifiedUnspecifedNONE
3312015-04-08 10:57PSTYesAD/DAUSGS45800 UnspecifiedUnspecifedNONE
3302015-04-08 10:46PSTYesAD/DAUSGS45900 UnspecifiedUnspecifedNONE
3292015-04-08 10:32PSTYesAD/DAUSGS46300 UnspecifiedUnspecifedNONE
3282015-04-08 10:19PSTYesAD/DAUSGS46300 UnspecifiedUnspecifedNONE
3272015-03-30 15:19PSTYesAD/DAUSGS4380017.08 UnspecifiedUnspecifedNONE
3262015-03-30 15:11PSTYesAD/DAUSGS4230017.14 UnspecifiedUnspecifedNONE
3252015-03-30 15:00PSTYesAD/DAUSGS4230017.23 UnspecifiedUnspecifedNONE
3242015-03-30 14:51PSTYesAD/DAUSGS3800017.31 UnspecifiedUnspecifedNONE
3232015-03-30 14:41PSTYesAD/DAUSGS3520017.41 UnspecifiedUnspecifedNONE
3222015-03-30 14:32PSTYesAD/DAUSGS2850017.50 UnspecifiedUnspecifedNONE
3212015-01-20 15:54PSTYesDA/ADUSGS-27900 Unspecified NONE
3202015-01-20 15:42PSTYesDA/ADUSGS-33800 Unspecified NONE
3192015-01-20 15:30PSTYesDA/ADUSGS-38900 Unspecified NONE
3182015-01-20 15:19PSTYesDA/ADUSGS-43600 Unspecified NONE
3172015-01-20 15:07PSTYesDA/ADUSGS-46200 Unspecified NONE
3162015-01-20 14:57PSTYesDA/ADUSGS-49700 Unspecified NONE
3152015-01-20 14:38PSTYesDA/ADUSGS-53500 Unspecified NONE
3142015-01-20 14:27PSTYesDA/ADUSGS-54600 Unspecified NONE
3132015-01-20 14:15PSTYesDA/ADUSGS-54600 Unspecified NONE
3122015-01-20 14:04PSTYesDA/ADUSGS-56700 Unspecified NONE
3112014-05-16 13:24PSTYesxxxUSGS-88615.68 Unspecified NONE
3102014-05-16 13:15PSTYesxxxUSGS738015.63 Unspecified NONE
3092014-05-16 13:05PSTYesxxxUSGS1470015.43 Unspecified NONE
3082014-05-16 12:56PSTYesxxxUSGS1930015.46 Unspecified NONE
3072014-05-16 12:45PSTYesxxxUSGS2560015.37 Unspecified NONE
3062014-05-16 12:37PSTYesxxxUSGS2870015.30 Unspecified NONE
3052014-05-16 12:25PSTYesxxxUSGS3330015.25 Unspecified NONE
3042014-05-16 12:15PSTYesxxxUSGS3480015.27 Unspecified NONE
3032014-05-16 12:03PSTYesxxxUSGS3750015.27 Unspecified NONE
3022014-05-16 11:56PSTYesxxxUSGS3810015.36 Unspecified NONE
3012014-05-16 11:49PSTYesxxxUSGS3910015.35 Unspecified NONE
3002014-05-16 11:42PSTYesxxxUSGS4110015.39 Unspecified NONE
2992014-05-16 11:32PSTYesxxxUSGS4190015.48 Unspecified NONE
2982014-05-16 11:21PSTYesxxxUSGS4250015.56 Unspecified NONE
2972014-05-16 11:10PSTYesxxxUSGS4410015.65 Unspecified NONE
2962014-05-16 11:00PSTYesxxxUSGS4380015.70 Unspecified NONE
2952014-05-16 10:47PSTYesxxxUSGS4510015.80 Unspecified NONE
2942010-11-23 12:13PSTYesxxxUSGS-4710017.75 Unspecified NONE
2932010-11-23 12:06PSTYesxxxUSGS-4530017.69 Unspecified NONE
2922010-11-23 11:52PSTYesxxxUSGS-4150017.56 Unspecified NONE
2912010-11-23 11:46PSTYesxxxUSGS-3760017.51 Unspecified NONE
2902010-11-23 11:39PSTYesxxxUSGS-3510017.43 Unspecified NONE
2892010-01-27 14:19PSTYesxxxUSGS1770019.42 Unspecified NONE
2882010-01-27 14:14PSTYesxxxUSGS1300019.46 Unspecified NONE
2872010-01-27 14:09PSTYesxxxUSGS802019.51 Unspecified NONE
2862010-01-27 14:02PSTYesxxxUSGS224019.57 Unspecified NONE
2852010-01-27 13:56PSTYesxxxUSGS-401019.62 Unspecified NONE
2842010-01-27 13:50PSTYesxxxUSGS-902019.66 Poor NONE
2832009-01-08 14:38PSTYesBJS/PHKUSGS3730018.06 Unspecified NONE
2822009-01-08 14:32PSTYesBJS/PHKUSGS3400018.13 Unspecified NONE
2812009-01-08 14:25PSTYesBJS/PHKUSGS2700018.21 Unspecified NONE
2802009-01-08 14:19PSTYesBJS/PHKUSGS2260018.29 Unspecified NONE
2792009-01-08 14:09PSTYesBJS/PHKUSGS1170018.40 Unspecified NONE
2782009-01-08 14:00PSTYesBJS/PHKUSGS352018.50 Unspecified NONE
2772009-01-08 13:48PSTYesBJS/PHKUSGS-791018.60 Unspecified NONE
2762009-01-08 13:38PSTYesBJS/PHKUSGS-1510018.68 Unspecified NONE
2752008-06-18 15:54PSTYes?USGS-4590016.75 Unspecified NONE
2742008-06-18 15:48PSTYes?USGS-4500016.71 Unspecified NONE
2732008-06-18 12:38PSTYes?USGS160015.25 Unspecified NONE
2722008-06-18 12:33PSTYes?USGS569015.18 Unspecified NONE
2712008-06-18 12:26PSTYes?USGS1110015.12 Unspecified NONE
2702008-06-18 12:20PSTYes?USGS1480015.08 Unspecified NONE
2692008-06-18 12:15PSTYes?USGS1810015.04 Unspecified NONE
2682008-06-18 12:07PSTYes?USGS2150015.00 Unspecified NONE
2672008-06-18 12:00PSTYes?USGS2470014.96 Unspecified NONE
2662008-06-18 11:53PSTYes?USGS2730014.94 Unspecified NONE
2652008-06-18 11:47PSTYes?USGS3040014.92 Unspecified NONE
2642008-06-18 11:40PSTYes?USGS3150014.91 Unspecified NONE
2632008-06-18 11:34PSTYes?USGS3460014.90 Unspecified NONE
2622008-06-18 11:26PSTYes?USGS3520014.91 Unspecified NONE
2612008-06-18 11:18PSTYes?USGS3780014.94 Unspecified NONE
2602008-06-18 11:09PSTYes?USGS3870014.96 Unspecified NONE
2592008-06-18 11:01PSTYes?USGS3920014.98 Unspecified NONE
2582008-06-18 10:52PSTYes?USGS4050015.02 Unspecified NONE
2572008-06-18 10:43PSTYes?USGS4130015.06 Unspecified NONE
2562008-06-18 10:34PSTYes?USGS4170015.12 Unspecified NONE
2552008-05-13 16:21PSTYesYESUSGS38300 Unspecified NONE
2542008-05-13 15:56PSTYesYESUSGS40000 Unspecified NONE
2532008-05-13 15:44PSTYesYESUSGS41600 Unspecified NONE
2522008-05-13 15:29PSTYesYESUSGS41200 Unspecified NONE
2512008-05-13 15:20PSTYesYESUSGS42900 Unspecified NONE
2502008-05-13 15:12PSTYesYESUSGS42400 Unspecified NONE
2492008-05-13 14:46PSTYesYESUSGS35500 Unspecified NONE
2482008-05-13 14:37PSTYesYESUSGS40700 Unspecified NONE
2472008-05-13 13:47PSTYesYESUSGS42200 Unspecified NONE
2462008-05-13 13:40PSTYesYESUSGS42900 Unspecified NONE
2452008-05-13 13:28PSTYesYESUSGS43000 Unspecified NONE
2442008-05-13 13:21PSTYesYESUSGS41200 Unspecified NONE
2432008-05-13 13:11PSTYesYESUSGS41800 Unspecified NONE
2422008-05-13 13:04PSTYesYESUSGS40700 Unspecified NONE
2412008-05-13 12:55PSTYesYESUSGS39300 Unspecified NONE
2402008-05-13 12:49PSTYesYESUSGS37100 Unspecified NONE
2392008-05-13 12:42PSTYesYESUSGS35100 Unspecified NONE
2382008-05-13 12:36PSTYesYESUSGS33700 Unspecified NONE
2372008-05-13 12:29PSTYesYESUSGS30400 Unspecified NONE
2362008-05-13 12:25PSTYesYESUSGS27700 Unspecified NONE
2352008-05-13 12:18PSTYesYESUSGS23800 Unspecified NONE
2342008-05-13 12:13PSTYesYESUSGS20600 Unspecified NONE
2332008-05-13 12:07PSTYesYESUSGS16500 Unspecified NONE
2322008-05-13 12:02PSTYesYESUSGS12400 Unspecified NONE
2312008-05-13 11:56PSTYesYESUSGS8030 Unspecified NONE
2302008-05-13 11:51PSTYesYESUSGS3960 Unspecified NONE
2292008-05-13 11:45PSTYesYESUSGS372 Unspecified NONE
2282008-05-13 11:40PSTYesYESUSGS-2850 Unspecified NONE
2272008-05-13 11:32PSTYesYESUSGS-6930 Unspecified NONE
2262008-05-13 11:27PSTYesYESUSGS-10200 Unspecified NONE
2252008-05-13 11:19PSTYesYESUSGS-14100 Unspecified NONE
2242008-05-13 11:14PSTYesYESUSGS-16500 Unspecified NONE
2232008-05-13 11:07PSTYesYESUSGS-19600 Unspecified NONE
2222008-05-13 11:02PSTYesYESUSGS-21500 Unspecified NONE
2212008-05-13 10:56PSTYesYESUSGS-23400 Unspecified NONE
2202008-05-13 10:51PSTYesYESUSGS-25000 Unspecified NONE
2192008-05-13 10:45PSTYesYESUSGS-26600 Unspecified NONE
2182008-05-13 10:40PSTYesYESUSGS-28600 Unspecified NONE
2172008-05-13 10:33PSTYesYESUSGS-30400 Unspecified NONE
2162008-05-13 10:28PSTYesYESUSGS-31400 Unspecified NONE
2152008-05-13 10:21PSTYesYESUSGS-32600 Unspecified NONE
2142008-05-13 10:15PSTYesYESUSGS-33900 Unspecified NONE
2132008-05-13 10:09PSTYesYESUSGS-35200 Unspecified NONE
2122008-05-13 10:03PSTYesYESUSGS-35600 Unspecified NONE
2112008-05-13 09:56PSTYesYESUSGS-36800 Unspecified NONE
2102008-05-13 09:49PSTYesYESUSGS-37500 Unspecified NONE
2092008-05-13 09:42PSTYesYESUSGS-38500 Unspecified NONE
2082008-05-13 09:35PSTYesYESUSGS-39500 Unspecified NONE
2072008-05-13 09:26PSTYesYESUSGS-39600 Unspecified NONE
2062008-05-13 09:09PSTYesYESUSGS-41400 Unspecified NONE
2052008-05-13 08:25PSTYesYESUSGS-41100 Unspecified NONE
2042008-05-13 08:14PSTYesYESUSGS-41100 Unspecified NONE
2032008-05-13 08:04PSTYesYESUSGS-39200 Unspecified NONE
2022008-05-13 07:50PSTYesYESUSGS-38100 Unspecified NONE
2012008-05-13 07:40PSTYesYESUSGS-35800 Unspecified NONE
2002008-05-13 07:31PSTYesYESUSGS-30000 Unspecified NONE
1992008-05-13 07:22PSTYesYESUSGS-26700 Unspecified NONE
1982008-03-19 13:19PSTYesBJS/CRBUSGS-5020017.43 Unspecified NONE
1972008-03-19 13:13PSTYesBJS/CRBUSGS-5020017.39 Unspecified NONE
1962008-03-19 13:07PSTYesBJS/CRBUSGS-5100017.35 Unspecified NONE
1952008-03-19 13:00PSTYesBJS/CRBUSGS-5050017.31 Unspecified NONE
1942008-03-19 12:53PSTYesBJS/CRBUSGS-5130017.25 Unspecified NONE
1932008-03-19 12:47PSTYesBJS/CRBUSGS-5180017.20 Unspecified NONE
1922008-03-19 12:40PSTYesBJS/CRBUSGS-5180017.15 Unspecified NONE
1912008-03-19 12:32PSTYesBJS/CRBUSGS-5180017.10 Unspecified NONE
1902008-03-19 12:12PSTYesBJS/CRBUSGS-5090016.95 Unspecified NONE
1892008-03-19 12:05PSTYesBJS/CRBUSGS-5040016.90 Unspecified NONE
1882008-03-19 11:58PSTYesBJS/CRBUSGS-5080016.86 Unspecified NONE
1872008-03-19 11:52PSTYesBJS/CRBUSGS-4970016.81 Unspecified NONE
1862008-03-19 11:45PSTYesBJS/CRBUSGS-4970016.76 Unspecified NONE
1852008-03-19 11:38PSTYesBJS/CRBUSGS-5010016.71 Unspecified NONE
1842008-03-19 11:29PSTYesBJS/CRBUSGS-4910016.65 Unspecified NONE
1832008-03-19 11:19PSTYesBJS/CRBUSGS-5090016.58 Unspecified NONE
1822008-03-19 11:11PSTYesBJS/CRBUSGS-5030016.52 Unspecified NONE
1812008-03-19 11:02PSTYesBJS/CRBUSGS-4920016.43 Unspecified NONE
1802008-03-19 10:54PSTYesBJS/CRBUSGS-4790016.35 Unspecified NONE
1792008-03-19 10:48PSTYesBJS/CRBUSGS-4700016.29 Unspecified NONE
1782008-03-19 10:41PSTYesBJS/CRBUSGS-4390016.21 Unspecified NONE
1772008-03-19 10:32PSTYesBJS/CRBUSGS-3930016.12 Unspecified NONE
1762008-03-19 10:25PSTYesBJS/CRBUSGS-3670016.03 Unspecified NONE
1752008-03-19 10:17PSTYesBJS/CRBUSGS-3000015.95 Unspecified NONE
1742008-03-19 10:11PSTYesBJS/CRBUSGS-2530015.88 Unspecified NONE
1732008-01-17 15:04PSTYesBJS/TMGUSGS4840016.66 Unspecified NONE
1722008-01-17 14:50PSTYesBJS/TMGUSGS4900016.78 Unspecified NONE
1712008-01-17 14:35PSTYesBJS/TMGUSGS4970016.90 Unspecified NONE
1702008-01-17 14:20PSTYesBJS/TMGUSGS4990017.02 Unspecified NONE
1692008-01-17 14:05PSTYesBJS/TMGUSGS5300017.14 Unspecified NONE
1682008-01-17 13:48PSTYesBJS/TMGUSGS4930017.27 Unspecified NONE
1672008-01-17 13:31PSTYesBJS/TMGUSGS4960017.39 Unspecified NONE
1662008-01-17 13:18PSTYesBJS/TMGUSGS4660017.49 Unspecified NONE
1652008-01-17 13:04PSTYesBJS/TMGUSGS4460017.61 Unspecified NONE
1642008-01-17 12:41PSTYesBJS/TMGUSGS3700017.84 Unspecified NONE
1632007-08-01 19:13PSTYesJBD/CRBUSGS-2510018.11 Unspecified NONE
1622007-08-01 19:08PSTYesJBD/CRBUSGS-2720018.13 Unspecified NONE
1612007-08-01 18:50PSTYesJBD/CRBUSGS-3270018.15 Unspecified NONE
1602007-08-01 18:45PSTYesJBD/CRBUSGS-3440018.14 Unspecified NONE
1592007-08-01 18:27PSTYesJBD/CRBUSGS-3980018.11 Unspecified NONE
1582007-08-01 18:21PSTYesJBD/CRBUSGS-4100018.09 Unspecified NONE
1572007-08-01 17:59PSTYesJBD/CRBUSGS-4410017.99 Unspecified NONE
1562007-08-01 17:52PSTYesJBD/CRBUSGS-4600017.97 Unspecified NONE
1552007-08-01 17:34PSTYesJBD/CRBUSGS-4840017.87 Unspecified NONE
1542007-08-01 17:29PSTYesJBD/CRBUSGS-4910017.84 Unspecified NONE
1532007-08-01 17:07PSTYesJBD/CRBUSGS-5030017.72 Unspecified NONE
1522007-08-01 17:01PSTYesJBD/CRBUSGS-4890017.68 Unspecified NONE
1512007-08-01 16:37PSTYesJBD/CRBUSGS-5080017.52 Unspecified NONE
1502007-08-01 16:32PSTYesJBD/CRBUSGS-5180017.49 Unspecified NONE
1492007-08-01 16:07PSTYesJBD/CRBUSGS-5190017.33 Unspecified NONE
1482007-08-01 16:01PSTYesJBD/CRBUSGS-5130017.29 Unspecified NONE
1472007-08-01 15:55PSTYesJBD/CRBUSGS-5060017.25 Unspecified NONE
1462007-08-01 15:49PSTYesJBD/CRBUSGS-5140017.21 Unspecified NONE
1452007-08-01 15:44PSTYesJBD/CRBUSGS-5100017.17 Unspecified NONE
1442007-08-01 15:38PSTYesJBD/CRBUSGS-5130017.13 Unspecified NONE
1432007-08-01 15:32PSTYesJBD/CRBUSGS-5200017.09 Unspecified NONE
1422007-08-01 15:26PSTYesJBD/CRBUSGS-5220017.06 Unspecified NONE
1412007-08-01 15:06PSTYesJBD/CRBUSGS-5200016.93 Unspecified NONE
1402007-08-01 14:57PSTYesJBD/CRBUSGS-5280016.86 Unspecified NONE
1392007-08-01 14:50PSTYesJBD/CRBUSGS-5140016.79 Unspecified NONE
1382007-08-01 14:42PSTYesJBD/CRBUSGS-5000016.71 Unspecified NONE
1372007-08-01 14:32PSTYesJBD/CRBUSGS-4850016.59 Unspecified NONE
1362007-08-01 14:24PSTYesJBD/CRBUSGS-4500016.50 Unspecified NONE
1352007-08-01 14:17PSTYesJBD/CRBUSGS-4170016.42 Unspecified NONE
1342007-08-01 14:11PSTYesJBD/CRBUSGS-3690016.34 Unspecified NONE
1332007-08-01 14:05PSTYesJBD/CRBUSGS-3060016.26 Unspecified NONE
1322006-10-18 17:39PSTYes???USGS4290016.30 Unspecified NONE
1312006-10-18 17:31PSTYes???USGS4210016.39 Unspecified NONE
1302006-10-18 17:24PSTYes???USGS4260016.42 Unspecified NONE
1292006-10-18 17:17PSTYes???USGS4330016.48 Unspecified NONE
1282006-10-18 17:09PSTYes???USGS4300016.52 Unspecified NONE
1272006-10-18 17:01PSTYes???USGS4250016.58 Unspecified NONE
1262006-10-18 16:53PSTYes???USGS4140016.62 Unspecified NONE
1252006-10-18 16:33PSTYes???USGS3890016.79 Unspecified NONE
1242006-10-18 16:23PSTYes???USGS3540016.87 Unspecified NONE
1232006-10-18 16:14PSTYes???USGS3230016.96 Unspecified NONE
1222006-10-18 16:05PSTYes???USGS2670017.05 Unspecified NONE
1212006-10-18 15:57PSTYes???USGS2130017.14 Unspecified NONE
1202006-10-18 15:48PSTYes???USGS1440017.23 Unspecified NONE
1192006-10-18 15:41PSTYes???USGS828017.30 Unspecified NONE
1182006-10-18 15:32PSTYes???USGS149017.37 Unspecified NONE
1172006-10-18 15:25PSTYes???USGS-339017.42 Unspecified NONE
1162006-10-18 15:17PSTYes???USGS-876017.48 Unspecified NONE
1152006-10-18 15:09PSTYes???USGS-1360017.53 Unspecified NONE
1142006-10-18 15:00PSTYes???USGS-1820017.57 Unspecified NONE
1132006-10-18 14:52PSTYes???USGS-2180017.60 Unspecified NONE
1122006-10-18 14:43PSTYes???USGS-2600017.61 Unspecified NONE
1112006-10-18 14:34PSTYes???USGS-2840017.61 Unspecified NONE
1102006-10-18 14:22PSTYes???USGS-3290017.61 Unspecified NONE
1092006-10-18 14:09PSTYes???USGS-3560017.59 Unspecified NONE
1082006-10-18 14:01PSTYes???USGS-3780017.58 Unspecified NONE
1072006-10-18 13:48PSTYes???USGS-3980017.52 Unspecified NONE
1062006-10-18 13:40PSTYes???USGS-4100017.49 Unspecified NONE
1052006-10-18 13:32PSTYes???USGS-4230017.44 Unspecified NONE
1042006-10-18 13:23PSTYes???USGS-4340017.40 Unspecified NONE
1032006-10-18 13:13PSTYes???USGS-4400017.35 Unspecified NONE
1022006-10-18 13:02PSTYes???USGS-4520017.27 Unspecified NONE
1012006-10-18 12:49PSTYes???USGS-4620017.19 Unspecified NONE
1002006-10-18 12:35PSTYes???USGS-4760017.11 Unspecified NONE
992006-10-18 11:54PSTYes???USGS-4710016.80 Unspecified NONE
982006-10-18 11:35PSTYes???USGS-4710016.65 Unspecified NONE
972006-10-18 11:27PSTYes???USGS-4610016.59 Unspecified NONE
962006-10-18 11:13PSTYes???USGS-4620016.49 Unspecified NONE
952006-10-18 10:58PSTYes???USGS-4490016.40 Unspecified NONE
942006-10-18 10:50PSTYes???USGS-4660016.34 Unspecified NONE
932006-10-18 10:42PSTYes???USGS-4520016.28 Unspecified NONE
922006-10-18 10:35PSTYes???USGS-4620016.21 Unspecified NONE
912006-10-18 10:26PSTYes???USGS-4490016.14 Unspecified NONE
902006-10-18 10:19PSTYes???USGS-4390016.08 Unspecified NONE
892006-10-18 10:11PSTYes???USGS-4140015.99 Unspecified NONE
882006-10-18 10:04PSTYes???USGS-4040015.92 Unspecified NONE
872006-10-18 09:55PSTYes???USGS-3670015.82 Unspecified NONE
862006-10-18 09:47PSTYes???USGS-3120015.74 Unspecified NONE
852006-10-18 09:39PSTYes???USGS-2720015.65 Unspecified NONE
842006-10-18 09:31PSTYes???USGS-2080015.55 Unspecified NONE
832006-10-18 09:23PSTYes???USGS-1390015.47 Unspecified NONE
822006-10-18 09:15PSTYes???USGS-629015.39 Unspecified NONE
812006-10-18 09:06PSTYes???USGS25415.29 Unspecified NONE
802006-10-18 08:58PSTYes???USGS613015.22 Unspecified NONE
792006-10-18 08:50PSTYes???USGS1070015.16 Unspecified NONE
782006-10-18 08:40PSTYes???USGS1580015.10 Unspecified NONE
772006-10-18 08:32PSTYes???USGS1920015.06 Unspecified NONE
762006-10-18 08:25PSTYes???USGS2230015.04 Unspecified NONE
752006-10-18 08:16PSTYes???USGS2540015.02 Unspecified NONE
742006-10-18 08:08PSTYes???USGS2700015.02 Unspecified NONE
732006-10-18 08:01PSTYes???USGS2860015.02 Unspecified NONE
722006-10-18 07:53PSTYes???USGS3070015.03 Unspecified NONE
712006-10-18 07:46PSTYes???USGS3180015.06 Unspecified NONE
702006-10-18 07:39PSTYes???USGS3300015.08 Unspecified NONE
692006-10-18 07:31PSTYes???USGS3420015.11 Unspecified NONE
682006-10-18 07:23PSTYes???USGS3470015.15 Unspecified NONE
672006-10-18 07:02PSTYes???USGS3680015.28 Unspecified NONE
662006-10-18 06:53PSTYes???USGS3670015.33 Unspecified NONE
652006-10-18 06:41PSTYes???USGS3840015.42 Unspecified NONE
642006-10-18 06:33PSTYes???USGS3850015.47 Unspecified NONE
632006-10-18 06:24PSTYes???USGS3950015.56 Unspecified NONE
622006-10-18 06:16PSTYes???USGS3980015.63 Unspecified NONE
612006-10-18 06:08PSTYes???USGS4000015.67 Unspecified NONE
602006-08-10 17:46PSTYes???USGS-3740018.19 Unspecified NONE
592006-08-10 17:40PSTYes???USGS-3810018.19 Unspecified NONE
582006-08-10 17:34PSTYes???USGS-4000018.17 Unspecified NONE
572006-08-10 17:28PSTYes???USGS-4160018.14 Unspecified NONE
562006-08-10 17:22PSTYes???USGS-4290018.12 Unspecified NONE
552006-08-10 17:14PSTYes???USGS-4420018.10 Unspecified NONE
542006-08-10 17:05PSTYes???USGS-4620018.05 Unspecified NONE
532006-08-10 16:55PSTYes???USGS-4690018.00 Unspecified NONE
522006-08-10 16:49PSTYes???USGS-4800017.96 Unspecified NONE
512006-08-10 16:41PSTYes???USGS-4880017.92 Unspecified NONE
502006-08-10 16:35PSTYes???USGS-4960017.88 Unspecified NONE
492006-08-10 16:26PSTYes???USGS-5020017.83 Unspecified NONE
482006-08-10 16:18PSTYes???USGS-5130017.78 Unspecified NONE
472006-08-10 16:02PSTYes???USGS-5200017.67 Unspecified NONE
462006-08-10 15:55PSTYes???USGS-5180017.63 Unspecified NONE
452006-08-10 15:47PSTYes???USGS-5220017.57 Unspecified NONE
442006-08-10 15:40PSTYes???USGS-5240017.53 Unspecified NONE
432006-08-10 15:32PSTYes???USGS-5070017.46 Unspecified NONE
422006-08-10 15:25PSTYes???USGS-5240017.41 Unspecified NONE
412006-08-10 15:18PSTYes???USGS-5150017.37 Unspecified NONE
402006-08-10 15:13PSTYes???USGS-5220017.34 Unspecified NONE
392006-08-10 14:46PSTYes???USGS-5240017.15 Unspecified NONE
382006-08-10 14:39PSTYes???USGS-5330017.09 Unspecified NONE
372006-08-10 14:33PSTYes???USGS-5210017.05 Unspecified NONE
362006-08-10 14:27PSTYes???USGS-5340017.00 Unspecified NONE
352006-08-10 14:17PSTYes???USGS-5350016.94 Unspecified NONE
342006-08-10 14:10PSTYes???USGS-5450016.88 Unspecified NONE
332006-08-10 14:04PSTYes???USGS-5410016.82 Unspecified NONE
322006-08-10 13:50PSTYes???USGS-5320016.67 Unspecified NONE
312006-08-10 13:41PSTYes???USGS-5030016.58 Unspecified NONE
302006-08-10 13:34PSTYes???USGS-4740016.49 Unspecified NONE
292006-08-10 13:27PSTYes???USGS-4440016.40 Unspecified NONE
282006-08-10 13:19PSTYes???USGS-3600016.27 Unspecified NONE
272006-08-10 13:05PSTYes???USGS-2320016.09 Unspecified NONE
262006-08-10 12:54PSTYes???USGS-934015.92 Unspecified NONE
252006-08-10 12:44PSTYes???USGS105015.80 Unspecified NONE
242006-08-10 12:35PSTYes???USGS956015.69 Unspecified NONE
232006-08-10 12:25PSTYes???USGS1620015.58 Unspecified NONE
222006-08-10 12:15PSTYes???USGS2400015.49 Unspecified NONE
212006-08-10 12:03PSTYes???USGS2840015.44 Unspecified NONE
202006-08-10 11:53PSTYes???USGS3230015.42 Unspecified NONE
192006-08-10 11:41PSTYes???USGS3570015.42 Unspecified NONE
182006-08-10 11:34PSTYes???USGS3720015.42 Unspecified NONE
172006-08-10 11:27PSTYes???USGS3780015.46 Unspecified NONE
162006-08-10 11:20PSTYes???USGS3960015.49 Unspecified NONE
152006-08-10 11:05PSTYes???USGS4120015.57 Unspecified NONE
142006-08-10 10:58PSTYes???USGS4180015.60 Unspecified NONE
132006-08-10 10:48PSTYes???USGS4290015.69 Unspecified NONE
122006-08-10 10:41PSTYes???USGS4350015.73 Unspecified NONE
112006-08-10 10:28PSTYes???USGS4420015.84 Unspecified NONE
102006-08-10 10:21PSTYes???USGS4380015.90 Unspecified NONE
92006-08-10 10:13PSTYes???USGS4500015.95 Unspecified NONE
82006-08-10 10:04PSTYes???USGS4590016.04 Unspecified NONE
72006-08-10 09:55PSTYes???USGS4610016.12 Unspecified NONE
62006-08-10 09:47PSTYes???USGS4620016.18 Unspecified NONE
52006-08-10 09:40PSTYes???USGS4670016.25 Unspecified NONE
42006-08-10 09:33PSTYes???USGS4750016.31 Unspecified NONE
32006-08-10 09:23PSTYes???USGS4820016.40 Unspecified NONE
22006-08-10 09:16PSTYes???USGS4830016.47 Unspecified NONE
12006-08-10 09:04PSTYes???USGS4920016.58 Unspecified NONE